createdAt,value
2017-11-16T00:00:07.541Z,32.53
2017-11-16T00:03:09.802Z,33.93
2017-11-16T00:06:11.809Z,34.43
2017-11-16T00:09:14.079Z,31.23
2017-11-16T00:12:16.088Z,32.30
2017-11-16T00:15:18.379Z,32.50
2017-11-16T00:18:20.434Z,31.30
2017-11-16T00:21:22.709Z,30.67
2017-11-16T00:24:24.604Z,32.10
2017-11-16T00:27:26.927Z,31.47
2017-11-16T00:30:29.591Z,30.17
2017-11-16T00:33:31.928Z,31.47
2017-11-16T00:36:33.887Z,30.87
2017-11-16T00:39:36.191Z,30.40
2017-11-16T00:42:38.963Z,31.83
2017-11-16T00:45:41.287Z,29.73
2017-11-16T00:48:43.946Z,30.50
2017-11-16T00:51:46.285Z,29.50
2017-11-16T00:54:49.063Z,28.10
2017-11-16T00:57:51.367Z,30.23
2017-11-16T01:00:54.784Z,29.30
2017-11-16T01:03:57.051Z,28.90
2017-11-16T01:06:59.018Z,30.00
2017-11-16T01:10:01.348Z,30.20
2017-11-16T01:13:04.143Z,28.97
2017-11-16T01:16:06.554Z,31.73
2017-11-16T01:19:09.342Z,29.83
2017-11-16T01:22:12.444Z,31.30
2017-11-16T01:25:14.381Z,29.90
2017-11-16T01:28:16.723Z,31.77
2017-11-16T01:31:19.425Z,29.83
2017-11-16T01:34:21.709Z,29.20
2017-11-16T01:37:23.689Z,31.07
2017-11-16T01:40:26.805Z,30.07
2017-11-16T01:43:28.739Z,30.77
2017-11-16T01:46:31.096Z,29.17
2017-11-16T01:49:33.882Z,31.57
2017-11-16T01:52:36.151Z,30.87
2017-11-16T01:55:38.047Z,33.07
2017-11-16T01:58:40.310Z,33.30
2017-11-16T02:01:42.540Z,31.30
2017-11-16T02:04:45.613Z,32.47
2017-11-16T02:07:47.597Z,32.27
2017-11-16T02:10:49.920Z,31.77
2017-11-16T02:13:52.588Z,31.97
2017-11-16T02:16:54.830Z,32.67
2017-11-16T02:19:56.758Z,33.17
2017-11-16T02:22:59.042Z,34.30
2017-11-16T02:26:00.942Z,33.57
2017-11-16T02:29:04.718Z,31.00
2017-11-16T02:32:06.631Z,32.63
2017-11-16T02:35:08.955Z,33.20
2017-11-16T02:38:10.861Z,31.27
2017-11-16T02:41:13.100Z,31.47
2017-11-16T02:44:15.020Z,30.67
2017-11-16T02:47:18.159Z,29.97
2017-11-16T02:50:20.063Z,29.80
2017-11-16T02:53:22.398Z,30.30
2017-11-16T02:56:25.170Z,29.17
2017-11-16T02:59:28.259Z,28.97
2017-11-16T03:02:30.290Z,31.33
2017-11-16T03:05:33.367Z,30.87
2017-11-16T03:08:35.401Z,29.93
2017-11-16T03:11:38.512Z,29.40
2017-11-16T03:14:41.171Z,30.23
2017-11-16T03:17:43.441Z,29.17
2017-11-16T03:20:45.458Z,28.57
2017-11-16T03:23:48.583Z,27.30
2017-11-16T03:26:51.257Z,29.30
2017-11-16T03:29:53.530Z,27.53
2017-11-16T03:32:55.539Z,28.17
2017-11-16T03:35:57.818Z,27.03
2017-11-16T03:38:59.782Z,26.17
2017-11-16T03:42:02.107Z,27.23
2017-11-16T03:45:04.036Z,25.20
2017-11-16T03:48:06.356Z,24.47
2017-11-16T03:51:08.551Z,25.27
2017-11-16T03:54:10.837Z,26.00
2017-11-16T03:57:12.730Z,24.87
2017-11-16T04:00:14.998Z,24.80
2017-11-16T04:03:16.894Z,26.43
2017-11-16T04:06:19.177Z,25.70
2017-11-16T04:09:21.192Z,26.60
2017-11-16T04:12:23.721Z,24.87
2017-11-16T04:15:25.641Z,25.23
2017-11-16T04:18:27.954Z,25.50
2017-11-16T04:21:29.859Z,25.93
2017-11-16T04:24:32.370Z,25.13
2017-11-16T04:27:34.287Z,26.50
2017-11-16T04:30:36.606Z,25.93
2017-11-16T04:33:39.383Z,26.17
2017-11-16T04:36:42.222Z,26.23
2017-11-16T04:39:45.099Z,26.53
2017-11-16T04:42:48.101Z,27.60
2017-11-16T04:45:50.102Z,26.03
2017-11-16T04:48:53.212Z,27.17
2017-11-16T04:51:55.167Z,26.20
2017-11-16T04:54:57.688Z,26.77
2017-11-16T04:57:59.584Z,26.40
2017-11-16T05:01:02.657Z,25.50
2017-11-16T05:04:05.388Z,26.00
2017-11-16T05:07:08.500Z,24.90
2017-11-16T05:10:11.287Z,25.17
2017-11-16T05:13:13.571Z,25.40
2017-11-16T05:16:15.550Z,25.07
2017-11-16T05:19:17.794Z,27.77
2017-11-16T05:22:19.722Z,26.30
2017-11-16T05:25:22.031Z,26.63
2017-11-16T05:28:24.721Z,26.33
2017-11-16T05:31:26.978Z,24.80
2017-11-16T05:34:28.996Z,25.37
2017-11-16T05:37:32.079Z,26.30
2017-11-16T05:40:34.055Z,24.83
2017-11-16T05:43:36.354Z,25.17
2017-11-16T05:46:39.092Z,24.27
2017-11-16T05:49:42.183Z,24.20
2017-11-16T05:52:44.101Z,23.67
2017-11-16T05:55:46.470Z,23.57
2017-11-16T05:58:49.154Z,24.17
2017-11-16T06:01:51.416Z,24.60
2017-11-16T06:04:53.337Z,23.83
2017-11-16T06:07:56.414Z,23.33
2017-11-16T06:10:58.319Z,24.23
2017-11-16T06:14:00.566Z,23.07
2017-11-16T06:17:02.641Z,23.60
2017-11-16T06:20:04.959Z,22.50
2017-11-16T06:23:06.981Z,23.03
2017-11-16T06:26:09.231Z,20.87
2017-11-16T06:29:11.176Z,21.73
2017-11-16T06:32:13.534Z,22.23
2017-11-16T06:35:15.525Z,22.70
2017-11-16T06:38:18.611Z,21.03
2017-11-16T06:41:20.592Z,22.50
2017-11-16T06:44:22.816Z,22.33
2017-11-16T06:47:25.504Z,20.47
2017-11-16T06:50:28.598Z,20.73
2017-11-16T06:53:30.593Z,21.03
2017-11-16T06:56:32.984Z,21.50
2017-11-16T06:59:35.657Z,21.27
2017-11-16T07:02:37.979Z,20.00
2017-11-16T07:05:40.854Z,21.10
2017-11-16T07:08:43.267Z,20.83
2017-11-16T07:11:45.343Z,21.27
2017-11-16T07:14:47.311Z,21.80
2017-11-16T07:17:49.297Z,20.97
2017-11-16T07:20:51.304Z,21.93
2017-11-16T07:23:53.229Z,21.57
2017-11-16T07:26:55.272Z,20.77
2017-11-16T07:29:57.230Z,21.47
2017-11-16T07:32:59.313Z,20.30
2017-11-16T07:36:01.233Z,20.63
2017-11-16T07:39:03.944Z,20.47
2017-11-16T07:42:05.861Z,21.10
2017-11-16T07:45:07.800Z,20.53
2017-11-16T07:48:10.461Z,20.00
2017-11-16T07:51:12.776Z,20.17
2017-11-16T07:54:15.475Z,18.63
2017-11-16T07:57:17.418Z,19.17
2017-11-16T08:00:19.425Z,20.17
2017-11-16T08:03:21.431Z,18.40
2017-11-16T08:06:24.099Z,17.87
2017-11-16T08:09:26.178Z,18.80
2017-11-16T08:12:28.103Z,18.23
2017-11-16T08:15:30.815Z,19.07
2017-11-16T08:18:33.603Z,18.10
2017-11-16T08:21:36.406Z,17.03
2017-11-16T08:24:39.072Z,16.13
2017-11-16T08:27:41.015Z,17.07
2017-11-16T08:30:42.935Z,16.37
2017-11-16T08:33:44.914Z,16.30
2017-11-16T08:36:46.905Z,16.00
2017-11-16T08:39:48.918Z,16.13
2017-11-16T08:42:51.595Z,16.83
2017-11-16T08:45:53.535Z,15.20
2017-11-16T08:48:55.463Z,15.10
2017-11-16T08:51:58.899Z,15.83
2017-11-16T08:55:01.568Z,16.00
2017-11-16T08:58:03.494Z,15.80
2017-11-16T09:01:05.414Z,15.53
2017-11-16T09:04:07.359Z,16.70
2017-11-16T09:07:09.275Z,17.97
2017-11-16T09:10:11.229Z,15.63
2017-11-16T09:13:13.230Z,16.23
2017-11-16T09:16:15.179Z,16.80
2017-11-16T09:19:17.842Z,14.70
2017-11-16T09:22:20.364Z,15.17
2017-11-16T09:25:23.024Z,14.93
2017-11-16T09:28:24.972Z,15.23
2017-11-16T09:31:26.873Z,16.40
2017-11-16T09:34:29.644Z,15.70
2017-11-16T09:37:31.603Z,15.60
2017-11-16T09:40:34.616Z,16.00
2017-11-16T09:43:37.283Z,16.70
2017-11-16T09:46:39.297Z,15.27
2017-11-16T09:49:41.975Z,17.03
2017-11-16T09:52:43.987Z,15.90
2017-11-16T09:55:46.706Z,17.17
2017-11-16T09:58:49.541Z,16.87
2017-11-16T10:01:51.440Z,16.43
2017-11-16T10:04:53.355Z,16.63
2017-11-16T10:07:56.617Z,16.87
2017-11-16T10:10:58.615Z,16.70
2017-11-16T10:14:00.522Z,16.10
2017-11-16T10:17:02.500Z,16.20
2017-11-16T10:20:05.123Z,16.77
2017-11-16T10:23:07.879Z,15.93
2017-11-16T10:26:09.869Z,16.53
2017-11-16T10:29:11.808Z,14.83
2017-11-16T10:32:13.864Z,15.10
2017-11-16T10:35:17.585Z,16.27
2017-11-16T10:38:20.266Z,15.40
2017-11-16T10:41:23.073Z,14.30
2017-11-16T10:44:24.982Z,14.17
2017-11-16T10:47:26.963Z,16.03
2017-11-16T10:50:29.643Z,15.43
2017-11-16T10:53:31.567Z,15.93
2017-11-16T10:56:33.504Z,16.07
2017-11-16T10:59:35.452Z,15.07
2017-11-16T11:02:37.464Z,15.43
2017-11-16T11:05:40.359Z,16.20
2017-11-16T11:08:42.440Z,16.37
2017-11-16T11:11:44.452Z,17.67
2017-11-16T11:14:47.247Z,17.83
2017-11-16T11:17:49.207Z,17.17
2017-11-16T11:20:51.219Z,16.57
2017-11-16T11:23:53.161Z,16.93
2017-11-16T11:26:55.166Z,16.37
2017-11-16T11:29:57.114Z,17.80
2017-11-16T11:32:59.106Z,17.23
2017-11-16T11:36:01.078Z,16.07
2017-11-16T11:39:03.056Z,18.70
2017-11-16T11:42:05.094Z,19.03
2017-11-16T11:45:06.985Z,17.17
2017-11-16T11:48:09.692Z,23.13
2017-11-16T11:51:12.415Z,28.60
2017-11-16T11:54:14.430Z,19.03
2017-11-16T11:57:16.375Z,17.43
2017-11-16T12:00:18.294Z,17.73
2017-11-16T12:03:20.521Z,21.00
2017-11-16T12:06:23.208Z,17.27
2017-11-16T12:09:25.127Z,18.17
2017-11-16T12:12:27.178Z,17.97
2017-11-16T12:15:29.850Z,18.40
2017-11-16T12:18:31.789Z,17.13
2017-11-16T12:21:33.707Z,18.17
2017-11-16T12:24:35.698Z,17.57
2017-11-16T12:27:37.726Z,18.13
2017-11-16T12:30:39.667Z,17.97
2017-11-16T12:33:41.575Z,18.63
2017-11-16T12:36:43.496Z,18.63
2017-11-16T12:39:45.400Z,17.83
2017-11-16T12:42:47.346Z,22.30
2017-11-16T12:45:49.273Z,22.40
2017-11-16T12:48:51.317Z,23.13
2017-11-16T12:51:53.249Z,20.50
2017-11-16T12:54:55.283Z,17.77
2017-11-16T12:57:57.183Z,18.43
2017-11-16T13:00:59.205Z,19.27
2017-11-16T13:04:01.132Z,17.30
2017-11-16T13:07:03.048Z,18.67
2017-11-16T13:10:04.972Z,18.97
2017-11-16T13:13:07.765Z,19.70
2017-11-16T13:16:10.425Z,18.43
2017-11-16T13:19:12.366Z,17.27
2017-11-16T13:22:14.291Z,18.67
2017-11-16T13:25:16.385Z,17.33
2017-11-16T13:28:18.418Z,18.20
2017-11-16T13:31:22.094Z,18.13
2017-11-16T13:34:24.083Z,17.90
2017-11-16T13:37:26.157Z,17.93
2017-11-16T13:40:28.172Z,17.27
2017-11-16T13:43:31.051Z,18.90
2017-11-16T13:46:33.045Z,19.57
2017-11-16T13:49:35.122Z,20.13
2017-11-16T13:52:37.204Z,17.80
2017-11-16T13:55:39.133Z,20.20
2017-11-16T13:58:41.907Z,19.27
2017-11-16T14:01:45.931Z,18.90
2017-11-16T14:04:48.622Z,19.10
2017-11-16T14:07:50.642Z,19.33
2017-11-16T14:10:53.389Z,18.43
2017-11-16T14:13:55.416Z,20.67
2017-11-16T14:16:58.084Z,23.20
2017-11-16T14:20:00.006Z,19.60
2017-11-16T14:23:02.776Z,20.33
2017-11-16T14:26:04.754Z,19.53
2017-11-16T14:29:06.730Z,20.70
2017-11-16T14:32:08.735Z,19.00
2017-11-16T14:35:10.661Z,20.50
2017-11-16T14:38:12.581Z,19.23
2017-11-16T14:41:14.478Z,21.60
2017-11-16T14:44:16.451Z,21.87
2017-11-16T14:47:18.459Z,21.10
2017-11-16T14:50:21.262Z,21.77
2017-11-16T14:53:24.066Z,20.70
2017-11-16T14:56:26.801Z,20.10
2017-11-16T14:59:28.719Z,20.63
2017-11-16T15:02:30.730Z,21.50
2017-11-16T15:05:32.706Z,24.63
2017-11-16T15:08:34.654Z,23.27
2017-11-16T15:11:36.793Z,31.40
2017-11-16T15:14:39.487Z,28.80
2017-11-16T15:17:42.242Z,32.53
2017-11-16T15:20:44.255Z,35.80
2017-11-16T15:23:46.243Z,30.60
2017-11-16T15:26:48.169Z,28.80
2017-11-16T15:29:50.076Z,28.57
2017-11-16T15:32:52.084Z,29.00
2017-11-16T15:35:54.018Z,22.70
2017-11-16T15:38:56.047Z,22.97
2017-11-16T15:41:57.967Z,23.10
2017-11-16T15:45:00.017Z,23.07
2017-11-16T15:48:02.016Z,26.13
2017-11-16T15:51:04.790Z,20.93
2017-11-16T15:54:06.708Z,21.13
2017-11-16T15:57:09.467Z,21.73
2017-11-16T16:00:11.506Z,22.73
2017-11-16T16:03:13.539Z,22.87
2017-11-16T16:06:15.538Z,22.27
2017-11-16T16:09:17.499Z,24.33
2017-11-16T16:12:20.411Z,24.93
2017-11-16T16:15:22.423Z,20.90
2017-11-16T16:18:25.108Z,22.23
2017-11-16T16:21:27.089Z,22.73
2017-11-16T16:24:29.332Z,23.67
2017-11-16T16:27:31.394Z,23.43
2017-11-16T16:30:34.061Z,23.67
2017-11-16T16:33:36.031Z,27.53
2017-11-16T16:36:37.955Z,24.20
2017-11-16T16:39:40.734Z,25.17
2017-11-16T16:42:42.790Z,28.53
2017-11-16T16:45:44.782Z,27.80
2017-11-16T16:48:46.698Z,25.73
2017-11-16T16:51:49.489Z,21.83
2017-11-16T16:54:51.470Z,23.57
2017-11-16T16:57:54.198Z,23.33
2017-11-16T17:00:56.122Z,23.83
2017-11-16T17:03:58.143Z,23.97
2017-11-16T17:07:00.048Z,24.40
2017-11-16T17:10:01.984Z,25.93
2017-11-16T17:13:03.960Z,25.23
2017-11-16T17:16:05.940Z,23.50
2017-11-16T17:19:07.830Z,23.80
2017-11-16T17:22:09.832Z,29.03
2017-11-16T17:25:11.764Z,26.80
2017-11-16T17:28:13.695Z,27.73
2017-11-16T17:31:15.670Z,25.57
2017-11-16T17:34:17.668Z,25.33
2017-11-16T17:37:20.359Z,34.77
2017-11-16T17:40:22.328Z,31.97
2017-11-16T17:43:25.336Z,30.13
2017-11-16T17:46:27.341Z,27.53
2017-11-16T17:49:29.267Z,27.70
2017-11-16T17:52:31.275Z,25.57
2017-11-16T17:55:33.210Z,27.73
2017-11-16T17:58:35.248Z,27.07
2017-11-16T18:01:37.387Z,27.40
2017-11-16T18:04:39.437Z,26.30
2017-11-16T18:07:41.392Z,27.17
2017-11-16T18:10:43.413Z,27.53
2017-11-16T18:13:46.202Z,27.40
2017-11-16T18:16:48.377Z,28.03
2017-11-16T18:19:50.378Z,27.07
2017-11-16T18:22:53.059Z,29.07
2017-11-16T18:25:55.082Z,28.37
2017-11-16T18:28:57.943Z,29.00
2017-11-16T18:31:59.961Z,26.37
2017-11-16T18:35:02.731Z,29.20
2017-11-16T18:38:04.743Z,28.83
2017-11-16T18:41:07.541Z,28.87
2017-11-16T18:44:09.469Z,28.23
2017-11-16T18:47:11.412Z,28.80
2017-11-16T18:50:14.204Z,28.30
2017-11-16T18:53:16.188Z,28.83
2017-11-16T18:56:18.957Z,28.60
2017-11-16T18:59:20.931Z,30.33
2017-11-16T19:02:22.967Z,30.97
2017-11-16T19:05:25.746Z,29.67
2017-11-16T19:08:27.648Z,32.10
2017-11-16T19:11:29.631Z,31.93
2017-11-16T19:14:32.333Z,32.40
2017-11-16T19:17:34.283Z,33.10
2017-11-16T19:20:36.203Z,33.97
2017-11-16T19:23:38.975Z,34.73
2017-11-16T19:26:40.889Z,32.80
2017-11-16T19:29:43.755Z,33.93
2017-11-16T19:32:45.750Z,34.10
2017-11-16T19:35:47.733Z,34.10
2017-11-16T19:38:49.644Z,34.47
2017-11-16T19:41:52.414Z,34.30
2017-11-16T19:44:55.283Z,34.03
2017-11-16T19:47:57.232Z,34.77
2017-11-16T19:50:59.916Z,33.70
2017-11-16T19:54:01.918Z,33.33
2017-11-16T19:57:04.067Z,32.37
2017-11-16T20:00:06.038Z,31.07
2017-11-16T20:03:08.041Z,31.90
2017-11-16T20:06:10.012Z,31.67
2017-11-16T20:09:12.012Z,33.87
2017-11-16T20:12:14.718Z,32.53
2017-11-16T20:15:16.701Z,33.07
2017-11-16T20:18:18.699Z,31.53
2017-11-16T20:21:21.460Z,32.17
2017-11-16T20:24:23.468Z,30.87
2017-11-16T20:27:25.394Z,33.67
2017-11-16T20:30:27.435Z,32.20
2017-11-16T20:33:29.394Z,33.10
2017-11-16T20:36:31.315Z,33.03
2017-11-16T20:39:33.995Z,31.90
2017-11-16T20:42:35.951Z,32.40
2017-11-16T20:45:37.979Z,34.53
2017-11-16T20:48:40.690Z,34.77
2017-11-16T20:51:42.628Z,34.80
2017-11-16T20:54:44.648Z,35.40
2017-11-16T20:57:47.331Z,35.83
2017-11-16T21:00:49.316Z,34.50
2017-11-16T21:03:51.326Z,36.43
2017-11-16T21:06:54.113Z,34.73
2017-11-16T21:09:56.895Z,36.03
2017-11-16T21:12:58.838Z,37.40
2017-11-16T21:16:00.742Z,37.33
2017-11-16T21:19:02.670Z,36.90
2017-11-16T21:22:05.460Z,37.53
2017-11-16T21:25:07.427Z,39.27
2017-11-16T21:28:10.109Z,35.87
2017-11-16T21:31:12.143Z,37.80
2017-11-16T21:34:14.901Z,36.40
2017-11-16T21:37:17.792Z,37.97
2017-11-16T21:40:19.799Z,36.93
2017-11-16T21:43:21.790Z,37.77
2017-11-16T21:46:23.760Z,39.83
2017-11-16T21:49:26.510Z,37.73
2017-11-16T21:52:28.411Z,37.47
2017-11-16T21:55:30.327Z,36.90
2017-11-16T21:58:32.243Z,39.80
2017-11-16T22:01:34.964Z,37.43
2017-11-16T22:04:36.893Z,38.03
2017-11-16T22:07:38.887Z,37.87
2017-11-16T22:10:41.050Z,37.43
2017-11-16T22:13:43.071Z,38.13
2017-11-16T22:16:45.026Z,38.87
2017-11-16T22:19:47.009Z,37.27
2017-11-16T22:22:48.924Z,36.87
2017-11-16T22:25:51.712Z,39.47
2017-11-16T22:28:53.771Z,40.13
2017-11-16T22:31:55.699Z,40.30
2017-11-16T22:34:58.466Z,41.90
2017-11-16T22:38:00.466Z,37.63
2017-11-16T22:41:02.456Z,39.53
2017-11-16T22:44:04.411Z,38.80
2017-11-16T22:47:06.347Z,39.03
2017-11-16T22:50:08.387Z,37.57
2017-11-16T22:53:10.286Z,38.27
2017-11-16T22:56:12.355Z,38.63
2017-11-16T22:59:14.282Z,39.37
2017-11-16T23:02:16.276Z,38.27
2017-11-16T23:05:18.198Z,39.20
2017-11-16T23:08:20.193Z,38.00
2017-11-16T23:11:23.115Z,37.63
2017-11-16T23:14:25.801Z,37.37
2017-11-16T23:17:27.729Z,35.83
2017-11-16T23:20:29.787Z,35.87
2017-11-16T23:23:32.446Z,33.90
2017-11-16T23:26:34.463Z,33.07
2017-11-16T23:29:37.250Z,32.77
2017-11-16T23:32:39.219Z,27.97
2017-11-16T23:35:41.204Z,30.47
2017-11-16T23:38:43.126Z,25.43
2017-11-16T23:41:45.886Z,20.80
2017-11-16T23:44:47.862Z,16.77
2017-11-16T23:47:49.883Z,14.03
2017-11-16T23:50:52.665Z,12.23
2017-11-16T23:53:54.559Z,11.13
2017-11-16T23:56:56.497Z,11.53
2017-11-16T23:59:58.398Z,9.17
